Time;durP1;ratioP1;P1;durP2;ratioP2;P2;SDS_P1;SDS_P2;PMS_P1;PMS_P2;Temp;Humidity;BMP_temperature;BMP_pressure;BME280_temperature;BME280_humidity;BME280_pressure;Samples;Min_cycle;Max_cycle;Signal;HPM_P1;HPM_P2
2023/08/31 00:02:10;;;;;;;4.10;1.13;;;16.80;99.90;;;;;;5021184;28;20041;-75
2023/08/31 00:04:36;;;;;;;5.72;1.27;;;16.70;99.90;;;;;;5025764;28;20525;-75
2023/08/31 00:07:02;;;;;;;3.88;1.27;;;16.60;99.90;;;;;;5012198;28;20044;-75
2023/08/31 00:09:29;;;;;;;8.30;1.23;;;16.50;99.90;;;;;;5013685;28;20044;-75
2023/08/31 00:11:56;;;;;;;4.03;1.00;;;16.40;99.90;;;;;;5022173;28;20644;-75
2023/08/31 00:14:22;;;;;;;4.82;1.17;;;16.30;99.90;;;;;;5029885;28;20104;-75
2023/08/31 00:16:49;;;;;;;4.63;1.30;;;15.90;99.90;;;;;;5023229;28;20037;-75
2023/08/31 00:19:15;;;;;;;3.22;1.00;;;16.30;99.90;;;;;;5023790;28;20419;-75
2023/08/31 00:21:41;;;;;;;4.05;1.20;;;16.00;99.90;;;;;;5027367;28;20049;-75
2023/08/31 00:24:07;;;;;;;4.22;1.20;;;16.60;99.90;;;;;;5028241;28;20520;-75
2023/08/31 00:26:34;;;;;;;3.58;1.00;;;15.70;99.90;;;;;;5025027;28;20076;-75
2023/08/31 00:29:05;;;;;;;5.93;1.15;;;16.60;99.90;;;;;;5022708;28;20048;-75
2023/08/31 00:31:30;;;;;;;4.05;1.20;;;16.10;99.90;;;;;;5022532;28;20045;-75
2023/08/31 00:33:56;;;;;;;5.10;1.02;;;16.40;99.90;;;;;;5024254;28;20415;-75
2023/08/31 00:36:22;;;;;;;5.20;1.13;;;15.60;99.90;;;;;;5022485;28;20044;-75
2023/08/31 00:38:49;;;;;;;3.75;1.08;;;15.50;99.90;;;;;;5026712;28;20052;-75
2023/08/31 00:41:14;;;;;;;5.45;1.30;;;16.60;99.90;;;;;;5026636;28;20041;-75
2023/08/31 00:43:40;;;;;;;4.78;1.50;;;16.60;99.90;;;;;;5026054;28;20034;-75
2023/08/31 00:46:06;;;;;;;3.33;1.00;;;16.60;99.90;;;;;;5027107;28;20041;-76
2023/08/31 00:48:32;;;;;;;3.90;1.00;;;15.70;99.90;;;;;;5023088;28;20046;-76
2023/08/31 00:50:58;;;;;;;4.38;1.10;;;16.20;99.90;;;;;;5027498;28;20047;-75
2023/08/31 00:53:25;;;;;;;3.72;1.17;;;16.40;99.90;;;;;;5023564;28;20132;-75
2023/08/31 00:55:51;;;;;;;3.35;1.10;;;16.20;99.90;;;;;;5027342;28;20037;-75
2023/08/31 00:58:16;;;;;;;3.33;0.90;;;16.70;99.90;;;;;;5022153;28;20045;-75
2023/08/31 01:01:01;;;;;;;4.40;1.20;;;16.20;99.90;;;;;;5025738;28;20060;-75
2023/08/31 01:03:37;;;;;;;4.32;1.15;;;15.40;99.90;;;;;;5004036;28;20046;-76
2023/08/31 01:06:15;;;;;;;3.88;1.15;;;16.20;99.10;;;;;;5021600;28;21242;-76
2023/08/31 01:09:10;;;;;;;4.03;1.33;;;16.40;99.90;;;;;;5010919;28;20131;-76
2023/08/31 01:11:54;;;;;;;3.42;1.00;;;;;;;;;;5026327;28;20080;-76
2023/08/31 01:14:24;;;;;;;3.00;1.10;;;16.50;99.90;;;;;;5022884;28;20665;-76
2023/08/31 01:16:52;;;;;;;2.70;1.00;;;16.00;99.90;;;;;;5019342;28;20467;-75
2023/08/31 01:19:34;;;;;;;3.78;1.05;;;15.80;99.90;;;;;;5020952;28;20034;-75
2023/08/31 01:22:07;;;;;;;3.72;0.98;;;16.10;99.90;;;;;;5029290;28;20050;-76
2023/08/31 01:24:34;;;;;;;3.30;0.90;;;15.60;99.90;;;;;;5027178;28;20044;-76
2023/08/31 01:26:59;;;;;;;3.85;1.00;;;16.60;99.90;;;;;;5009811;28;20033;-75
2023/08/31 01:29:25;;;;;;;4.22;1.10;;;16.20;99.90;;;;;;5024065;28;20392;-76
2023/08/31 01:31:51;;;;;;;3.35;1.00;;;15.40;99.90;;;;;;5007273;28;20128;-75
2023/08/31 01:34:17;;;;;;;4.32;1.42;;;16.40;99.90;;;;;;5021692;28;20041;-76
2023/08/31 01:36:49;;;;;;;4.45;1.23;;;16.40;99.90;;;;;;4997280;28;20045;-76
2023/08/31 01:39:25;;;;;;;4.88;1.20;;;15.80;99.90;;;;;;5013853;28;20060;-76
2023/08/31 01:41:56;;;;;;;5.03;1.27;;;16.60;99.90;;;;;;5018234;28;20120;-75
2023/08/31 01:44:22;;;;;;;4.95;1.10;;;15.50;99.90;;;;;;5023647;28;20602;-76
2023/08/31 01:46:57;;;;;;;4.03;1.10;;;15.40;99.90;;;;;;5029879;28;20038;-75
2023/08/31 01:49:24;;;;;;;4.47;1.10;;;15.60;99.90;;;;;;5022142;28;20042;-76
2023/08/31 01:51:49;;;;;;;5.25;1.00;;;15.70;99.90;;;;;;5023508;28;20042;-75
2023/08/31 01:54:15;;;;;;;3.92;0.98;;;16.60;99.90;;;;;;5029030;28;20045;-75
2023/08/31 01:56:41;;;;;;;4.13;1.00;;;16.50;99.90;;;;;;5011126;28;20128;-76
2023/08/31 01:59:07;;;;;;;7.65;1.30;;;16.00;99.90;;;;;;5028517;28;20120;-76
2023/08/31 02:01:36;;;;;;;3.95;1.00;;;15.90;99.90;;;;;;5010477;28;20399;-76
2023/08/31 02:04:01;;;;;;;3.60;1.00;;;15.50;99.90;;;;;;5027529;28;20100;-75
2023/08/31 02:06:27;;;;;;;5.30;1.17;;;16.60;99.90;;;;;;5022747;28;20046;-75
2023/08/31 02:08:53;;;;;;;4.90;1.08;;;16.70;99.90;;;;;;5025219;28;20077;-75
2023/08/31 02:11:18;;;;;;;4.10;1.10;;;16.30;99.90;;;;;;5027210;28;20041;-76
2023/08/31 02:13:44;;;;;;;2.70;0.93;;;16.30;99.90;;;;;;5022292;28;20038;-75
2023/08/31 02:16:10;;;;;;;3.28;1.10;;;15.60;99.90;;;;;;5032683;28;20399;-76
2023/08/31 02:18:35;;;;;;;5.07;1.00;;;16.60;99.90;;;;;;5034093;28;20033;-75
2023/08/31 02:21:01;;;;;;;3.90;0.98;;;16.20;99.90;;;;;;5032107;28;20041;-75
2023/08/31 02:23:27;;;;;;;4.53;1.13;;;15.50;99.90;;;;;;5031670;28;20529;-75
2023/08/31 02:25:52;;;;;;;3.80;1.10;;;16.70;99.90;;;;;;5024751;28;20048;-75
2023/08/31 02:28:19;;;;;;;3.95;1.10;;;16.60;99.90;;;;;;5028298;28;20514;-75
2023/08/31 02:30:46;;;;;;;4.70;1.55;;;16.20;99.90;;;;;;5025717;28;20095;-75
2023/08/31 02:33:11;;;;;;;4.32;1.20;;;16.00;99.90;;;;;;5019823;28;20120;-75
2023/08/31 02:35:37;;;;;;;4.85;1.00;;;15.50;99.90;;;;;;5026730;28;20171;-75
2023/08/31 02:38:03;;;;;;;3.90;1.23;;;15.30;99.90;;;;;;5025022;28;20071;-75
2023/08/31 02:40:29;;;;;;;5.53;1.30;;;15.70;99.90;;;;;;5027947;28;20038;-75
2023/08/31 02:42:54;;;;;;;5.88;1.55;;;16.80;99.90;;;;;;5029077;28;20128;-75
2023/08/31 02:45:20;;;;;;;8.10;1.77;;;15.90;99.90;;;;;;5029352;28;20037;-75
2023/08/31 02:47:46;;;;;;;2.78;0.98;;;16.40;99.90;;;;;;5026566;28;20052;-75
2023/08/31 02:50:11;;;;;;;4.68;1.10;;;16.70;99.90;;;;;;5028992;28;20041;-75
2023/08/31 02:52:37;;;;;;;4.30;1.05;;;15.60;99.90;;;;;;5025517;28;20052;-75
2023/08/31 02:55:03;;;;;;;4.10;1.10;;;15.50;99.90;;;;;;5023048;28;20061;-75
2023/08/31 02:57:29;;;;;;;4.47;1.10;;;16.40;99.90;;;;;;5023205;28;20038;-75
2023/08/31 02:59:55;;;;;;;3.78;1.10;;;16.00;99.90;;;;;;5017995;28;20116;-75
2023/08/31 03:02:21;;;;;;;4.85;1.10;;;16.10;99.90;;;;;;5027043;28;20124;-75
2023/08/31 03:04:47;;;;;;;3.40;1.10;;;16.20;99.90;;;;;;5030140;28;20388;-75
2023/08/31 03:07:15;;;;;;;5.78;1.20;;;15.60;99.90;;;;;;5031991;28;20048;-76
2023/08/31 03:09:41;;;;;;;4.70;1.20;;;16.20;99.90;;;;;;5028206;28;20091;-75
2023/08/31 03:12:07;;;;;;;6.13;1.92;;;16.60;1.00;;;;;;5029792;28;20040;-76
2023/08/31 03:14:32;;;;;;;5.97;1.63;;;16.70;1.00;;;;;;5002276;28;20033;-76
2023/08/31 03:16:58;;;;;;;6.10;2.20;;;16.20;1.00;;;;;;5028746;28;20034;-75
2023/08/31 03:19:24;;;;;;;4.15;1.23;;;16.50;1.00;;;;;;5022821;28;20422;-75
2023/08/31 03:21:50;;;;;;;4.00;1.55;;;15.60;1.00;;;;;;5027146;28;20048;-75
2023/08/31 03:24:16;;;;;;;4.07;1.20;;;16.60;1.00;;;;;;5007252;28;20163;-76
2023/08/31 03:26:41;;;;;;;6.15;1.17;;;15.90;1.00;;;;;;5030061;28;20124;-75
2023/08/31 03:29:08;;;;;;;4.18;1.05;;;16.60;1.00;;;;;;5032357;28;20041;-75
2023/08/31 03:31:33;;;;;;;5.28;1.10;;;15.90;1.00;;;;;;5030905;28;20503;-75
2023/08/31 03:33:59;;;;;;;7.38;1.20;;;16.30;1.00;;;;;;5029730;28;20053;-75
2023/08/31 03:36:24;;;;;;;4.75;1.17;;;16.00;1.00;;;;;;5024356;28;20498;-75
2023/08/31 03:38:50;;;;;;;4.63;1.25;;;16.20;1.00;;;;;;5011992;28;20456;-75
2023/08/31 03:41:16;;;;;;;5.18;1.13;;;16.10;1.00;;;;;;5029346;28;20150;-75
2023/08/31 03:43:41;;;;;;;6.45;1.20;;;16.00;1.00;;;;;;5029761;28;20450;-75
2023/08/31 03:46:07;;;;;;;4.93;1.50;;;16.60;1.00;;;;;;5007250;28;20095;-76
2023/08/31 03:48:33;;;;;;;7.30;2.42;;;16.50;1.00;;;;;;5025601;28;20117;-75
2023/08/31 03:50:58;;;;;;;5.50;1.67;;;15.40;1.00;;;;;;5025889;28;20038;-76
2023/08/31 03:53:24;;;;;;;6.05;1.98;;;16.60;1.00;;;;;;5009220;28;20044;-75
2023/08/31 03:55:50;;;;;;;6.43;1.60;;;16.50;1.00;;;;;;5028795;28;20038;-76
2023/08/31 03:58:18;;;;;;;7.40;1.67;;;16.10;1.00;;;;;;5029497;28;20036;-75
2023/08/31 04:00:44;;;;;;;8.75;1.90;;;16.70;1.00;;;;;;5022341;28;20364;-75
2023/08/31 04:03:10;;;;;;;4.97;1.60;;;16.60;1.00;;;;;;5028172;28;20040;-75
2023/08/31 04:05:36;;;;;;;6.13;1.88;;;16.60;1.00;;;;;;5026906;28;20041;-75
2023/08/31 04:08:02;;;;;;;4.60;1.77;;;16.20;1.00;;;;;;5026792;28;20037;-75
2023/08/31 04:10:29;;;;;;;5.47;1.83;;;15.70;1.00;;;;;;5023979;28;20065;-75
2023/08/31 04:12:55;;;;;;;5.85;1.60;;;;;;;;;;5029644;28;20565;-75
2023/08/31 04:15:21;;;;;;;5.85;1.75;;;16.30;1.00;;;;;;5021925;28;20042;-75
2023/08/31 04:17:47;;;;;;;6.75;1.88;;;15.30;1.00;;;;;;5000308;28;20037;-76
2023/08/31 04:20:16;;;;;;;7.50;2.28;;;16.10;1.00;;;;;;5025832;28;20033;-75
2023/08/31 04:22:41;;;;;;;4.43;1.65;;;15.70;1.00;;;;;;5011891;28;20034;-75
2023/08/31 04:25:07;;;;;;;6.78;1.73;;;15.30;1.00;;;;;;5026169;28;20064;-75
2023/08/31 04:27:33;;;;;;;6.13;1.52;;;17.20;1.00;;;;;;5032897;28;20056;-75
2023/08/31 04:30:01;;;;;;;4.60;1.23;;;15.40;1.00;;;;;;5030614;28;20079;-75
2023/08/31 04:32:27;;;;;;;4.30;1.20;;;15.60;1.00;;;;;;5009232;28;20076;-75
2023/08/31 04:34:53;;;;;;;6.15;1.52;;;15.50;1.00;;;;;;5030666;28;20033;-75
2023/08/31 04:37:19;;;;;;;6.30;1.40;;;16.10;1.00;;;;;;5023764;28;20052;-75
2023/08/31 04:39:44;;;;;;;4.10;1.27;;;15.50;1.00;;;;;;5004634;28;20041;-75
2023/08/31 04:42:10;;;;;;;6.18;1.60;;;15.50;1.00;;;;;;5029111;28;20046;-75
2023/08/31 04:44:36;;;;;;;9.20;2.42;;;15.60;1.00;;;;;;5028852;28;20044;-75
2023/08/31 04:47:02;;;;;;;8.68;1.98;;;16.60;1.00;;;;;;5027941;28;20045;-75
2023/08/31 04:49:30;;;;;;;11.60;2.75;;;16.20;1.00;;;;;;5018959;28;20087;-74
2023/08/31 04:51:56;;;;;;;12.90;3.50;;;16.20;1.00;;;;;;5017658;28;20072;-74
2023/08/31 04:54:22;;;;;;;11.48;4.10;;;16.50;1.00;;;;;;5023678;28;20042;-75
2023/08/31 04:56:47;;;;;;;11.20;3.92;;;16.20;1.00;;;;;;5018478;28;20480;-75
2023/08/31 04:59:13;;;;;;;10.20;2.70;;;15.80;1.00;;;;;;5022984;28;20061;-75
2023/08/31 05:01:39;;;;;;;9.73;2.95;;;16.60;1.00;;;;;;5011070;28;20045;-75
2023/08/31 05:04:05;;;;;;;11.10;3.03;;;15.80;1.00;;;;;;5021014;28;20049;-74
2023/08/31 05:06:31;;;;;;;10.90;3.05;;;15.30;1.00;;;;;;5026959;28;20541;-74
2023/08/31 05:08:57;;;;;;;11.38;3.10;;;15.70;1.00;;;;;;5017421;28;20567;-75
2023/08/31 05:11:23;;;;;;;13.20;2.92;;;16.20;1.00;;;;;;5008864;28;20167;-75
2023/08/31 05:13:49;;;;;;;10.35;2.78;;;15.80;1.00;;;;;;5024178;28;20064;-75
2023/08/31 05:16:15;;;;;;;6.07;2.28;;;16.40;1.00;;;;;;5020823;28;20503;-75
2023/08/31 05:18:40;;;;;;;9.82;2.00;;;16.40;1.00;;;;;;5021772;28;20040;-76
2023/08/31 05:21:06;;;;;;;6.20;2.15;;;15.50;1.00;;;;;;5028722;28;20446;-75
2023/08/31 05:23:32;;;;;;;9.40;2.42;;;15.70;1.00;;;;;;5027563;28;20495;-76
2023/08/31 05:25:58;;;;;;;8.88;2.15;;;16.30;1.00;;;;;;5019011;28;20038;-75
2023/08/31 05:28:24;;;;;;;8.52;2.42;;;16.50;1.00;;;;;;5001776;28;20044;-76
2023/08/31 05:30:51;;;;;;;8.30;2.28;;;15.50;1.00;;;;;;5030522;28;20037;-75
2023/08/31 05:33:17;;;;;;;7.88;2.58;;;16.10;1.00;;;;;;5026609;28;20042;-75
2023/08/31 05:35:43;;;;;;;6.35;1.50;;;16.20;1.00;;;;;;5018710;28;20038;-75
2023/08/31 05:38:09;;;;;;;11.07;2.45;;;15.70;1.00;;;;;;5021242;28;20039;-75
2023/08/31 05:40:35;;;;;;;6.72;1.58;;;16.30;1.00;;;;;;5018379;28;20037;-75
2023/08/31 05:43:03;;;;;;;7.60;1.90;;;15.90;1.00;;;;;;5026895;28;20034;-76
2023/08/31 05:45:32;;;;;;;8.60;2.33;;;16.00;1.00;;;;;;5030025;28;20458;-75
2023/08/31 05:47:58;;;;;;;6.15;1.83;;;16.40;1.00;;;;;;5024983;28;20061;-75
2023/08/31 05:50:25;;;;;;;6.65;1.75;;;16.20;1.00;;;;;;5018670;28;20511;-75
2023/08/31 05:52:50;;;;;;;5.45;1.60;;;15.80;1.00;;;;;;5022547;28;20042;-75
2023/08/31 05:55:16;;;;;;;9.73;2.15;;;16.50;1.00;;;;;;5009284;28;20503;-75
2023/08/31 05:57:42;;;;;;;6.88;2.72;;;16.30;1.00;;;;;;5022591;28;20040;-76
2023/08/31 06:00:09;;;;;;;5.38;1.90;;;16.00;1.00;;;;;;5024338;28;20045;-75
2023/08/31 06:02:35;;;;;;;6.47;2.40;;;16.70;1.00;;;;;;5017701;28;20538;-75
2023/08/31 06:05:01;;;;;;;8.18;2.67;;;16.10;1.00;;;;;;5030162;28;20041;-75
2023/08/31 06:07:28;;;;;;;9.45;2.58;;;15.90;1.00;;;;;;5017409;28;20041;-75
2023/08/31 06:09:55;;;;;;;6.40;1.90;;;16.80;1.00;;;;;;5011813;28;20052;-76
2023/08/31 06:12:21;;;;;;;6.57;1.95;;;16.70;1.00;;;;;;5019625;28;20037;-77
2023/08/31 06:14:47;;;;;;;7.15;2.10;;;16.10;1.00;;;;;;5018836;28;20045;-76
2023/08/31 06:17:13;;;;;;;7.68;2.30;;;15.90;1.00;;;;;;5028298;28;20399;-78
2023/08/31 06:19:39;;;;;;;6.90;2.08;;;15.60;1.00;;;;;;5016371;28;20103;-78
2023/08/31 06:22:05;;;;;;;5.90;2.28;;;16.20;1.00;;;;;;5015305;28;20505;-77
2023/08/31 06:24:32;;;;;;;5.43;1.42;;;16.90;1.00;;;;;;5031264;28;20127;-77
2023/08/31 06:26:58;;;;;;;6.25;1.83;;;16.90;1.00;;;;;;5015309;28;20042;-79
2023/08/31 06:29:23;;;;;;;7.60;1.60;;;15.60;1.00;;;;;;5031451;28;20052;-78
2023/08/31 06:31:49;;;;;;;5.97;1.90;;;16.70;1.00;;;;;;5010393;28;20033;-79
2023/08/31 06:34:15;;;;;;;6.43;1.38;;;16.10;1.00;;;;;;5032876;28;20067;-78
2023/08/31 06:36:40;;;;;;;5.22;1.90;;;16.10;1.00;;;;;;5012192;28;20272;-79
2023/08/31 06:39:07;;;;;;;4.72;1.50;;;16.40;1.00;;;;;;5019629;28;20518;-78
2023/08/31 06:41:33;;;;;;;6.25;1.90;;;16.50;1.00;;;;;;5047830;28;20042;-79
2023/08/31 06:43:59;;;;;;;5.25;2.13;;;16.50;1.00;;;;;;5033834;28;20049;-78
2023/08/31 06:46:25;;;;;;;7.95;2.50;;;16.10;1.00;;;;;;5006012;28;20037;-79
2023/08/31 06:48:50;;;;;;;6.70;1.98;;;16.70;1.00;;;;;;5021434;28;20037;-79
2023/08/31 06:51:16;;;;;;;6.07;1.98;;;16.50;1.00;;;;;;5025302;28;20057;-78
2023/08/31 06:53:43;;;;;;;5.07;1.63;;;16.20;1.00;;;;;;5028179;28;20101;-79
2023/08/31 06:56:09;;;;;;;5.80;1.70;;;16.30;1.00;;;;;;5030988;28;20072;-78
2023/08/31 06:58:35;;;;;;;7.18;2.08;;;16.50;1.00;;;;;;5019322;28;20069;-76
2023/08/31 07:01:05;;;;;;;5.72;1.90;;;16.70;4.70;;;;;;5008803;28;20029;-77
2023/08/31 07:03:31;;;;;;;5.38;1.70;;;16.60;1.00;;;;;;5019775;28;20145;-78
2023/08/31 07:05:57;;;;;;;5.00;1.60;;;17.00;1.00;;;;;;5006149;28;20057;-79
2023/08/31 07:08:22;;;;;;;6.25;2.05;;;16.40;7.20;;;;;;5029381;28;20037;-79
2023/08/31 07:10:50;;;;;;;4.32;1.40;;;16.50;3.20;;;;;;5011751;28;20133;-78
2023/08/31 07:13:16;;;;;;;6.18;1.30;;;16.90;1.00;;;;;;5009746;28;20048;-79
2023/08/31 07:15:41;;;;;;;4.30;1.48;;;16.50;1.00;;;;;;5008070;28;20400;-78
2023/08/31 07:18:07;;;;;;;5.15;1.48;;;16.40;1.00;;;;;;5021629;28;20049;-77
2023/08/31 07:20:33;;;;;;;5.25;1.65;;;17.40;1.00;;;;;;5011936;28;20040;-78
2023/08/31 07:22:59;;;;;;;5.03;1.30;;;16.60;1.40;;;;;;5019733;28;20033;-80
2023/08/31 07:25:25;;;;;;;3.92;1.20;;;17.00;3.90;;;;;;5031378;28;20048;-81
2023/08/31 07:27:52;;;;;;;4.13;1.35;;;17.00;7.00;;;;;;5018351;28;20049;-81
2023/08/31 07:30:18;;;;;;;6.07;1.67;;;16.90;7.40;;;;;;5027983;28;20073;-81
2023/08/31 07:32:43;;;;;;;4.70;1.00;;;16.50;12.60;;;;;;5030553;28;20048;-79
2023/08/31 07:35:12;;;;;;;6.40;1.83;;;;;;;;;;5070151;22;20415;-86
2023/08/31 07:37:38;;;;;;;6.30;1.67;;;;;;;;;;5023659;28;20044;-86
2023/08/31 07:40:08;;;;;;;2.45;1.00;;;;;;;;;;5030342;28;20045;-86
2023/08/31 07:42:35;;;;;;;4.30;1.48;;;16.80;1.00;;;;;;5026313;28;20105;-87
2023/08/31 07:45:01;;;;;;;4.95;1.45;;;;;;;;;;5013285;28;20049;-86
2023/08/31 07:47:27;;;;;;;4.88;1.27;;;;;;;;;;5021243;28;20048;-87
2023/08/31 07:49:53;;;;;;;4.30;1.17;;;;;;;;;;5027440;28;20294;-87
2023/08/31 07:52:19;;;;;;;3.47;0.90;;;;;;;;;;5028242;28;20049;-87
2023/08/31 07:54:45;;;;;;;4.25;1.17;;;;;;;;;;5012966;28;20033;-86
2023/08/31 07:57:11;;;;;;;2.90;0.90;;;;;;;;;;5010961;28;20038;-87
2023/08/31 07:59:39;;;;;;;4.60;0.95;;;;;;;;;;5021249;28;20041;-87
2023/08/31 08:02:06;;;;;;;3.60;1.02;;;17.00;99.90;;;;;;5014664;28;20068;-88
2023/08/31 08:04:32;;;;;;;3.38;1.08;;;;;;;;;;5029228;28;20041;-87
2023/08/31 08:09:34;;;;;;;1.98;0.82;;;16.30;99.90;;;;;;5022907;22;20085;-82
2023/08/31 08:12:06;;;;;;;5.53;1.33;;;16.80;99.90;;;;;;4990571;28;20038;-82
2023/08/31 08:14:35;;;;;;;3.85;0.90;;;17.00;99.90;;;;;;5019127;28;20120;-83
2023/08/31 08:17:03;;;;;;;2.70;0.90;;;17.00;99.90;;;;;;4999278;28;20049;-83
2023/08/31 08:19:29;;;;;;;4.90;1.05;;;;;;;;;;5001794;28;20042;-83
2023/08/31 08:21:58;;;;;;;2.70;0.82;;;;;;;;;;4990807;28;20436;-83
2023/08/31 08:24:24;;;;;;;2.67;0.95;;;17.20;99.90;;;;;;5009866;28;20468;-83
2023/08/31 08:26:50;;;;;;;5.22;1.35;;;;;;;;;;5008225;28;20124;-83
2023/08/31 08:29:15;;;;;;;5.43;1.50;;;17.00;99.90;;;;;;5000122;28;20046;-83
2023/08/31 08:31:42;;;;;;;3.28;1.73;;;;;;;;;;4992833;28;20044;-82
2023/08/31 08:34:08;;;;;;;4.07;1.48;;;17.30;99.90;;;;;;5010087;28;20033;-83
2023/08/31 08:36:34;;;;;;;5.55;1.52;;;;;;;;;;4993402;28;20449;-82
2023/08/31 08:39:00;;;;;;;7.13;1.77;;;;;;;;;;5000379;28;20038;-82
2023/08/31 08:41:29;;;;;;;4.50;1.50;;;17.10;99.90;;;;;;4983613;28;20042;-82
2023/08/31 08:44:00;;;;;;;4.13;1.30;;;17.40;99.90;;;;;;5008252;28;20064;-83
2023/08/31 08:46:26;;;;;;;4.15;1.30;;;17.30;99.90;;;;;;4974942;28;20054;-83
2023/08/31 08:48:53;;;;;;;4.57;1.58;;;16.30;99.90;;;;;;5001908;28;20387;-82
2023/08/31 08:51:22;;;;;;;5.88;1.40;;;;;;;;;;5010072;28;20057;-82
2023/08/31 08:53:50;;;;;;;4.47;1.17;;;17.30;1.00;;;;;;4989244;28;20042;-83
2023/08/31 08:56:19;;;;;;;3.75;1.10;;;;;;;;;;4991943;28;20546;-83
2023/08/31 08:58:45;;;;;;;6.32;1.30;;;16.90;1.00;;;;;;5012416;28;20386;-82
2023/08/31 09:01:11;;;;;;;4.30;1.25;;;17.20;1.00;;;;;;4995463;28;20049;-83
2023/08/31 09:03:39;;;;;;;5.32;1.35;;;17.80;1.00;;;;;;5002057;28;20120;-83
2023/08/31 09:06:08;;;;;;;3.75;1.15;;;;;;;;;;4975676;28;20034;-83
2023/08/31 09:08:33;;;;;;;5.07;1.20;;;17.50;1.00;;;;;;4989399;28;20088;-83
2023/08/31 09:11:02;;;;;;;6.07;1.40;;;17.00;1.00;;;;;;5007195;28;20057;-83
2023/08/31 09:13:29;;;;;;;3.97;1.00;;;;;;;;;;5005680;28;20045;-83
2023/08/31 09:15:56;;;;;;;4.28;1.20;;;;;;;;;;5009989;28;20453;-83
2023/08/31 09:18:33;;;;;;;4.20;1.10;;;;;;;;;;4995118;28;20046;-84
2023/08/31 09:21:00;;;;;;;3.40;1.10;;;;;;;;;;5002845;28;20069;-83
2023/08/31 09:23:26;;;;;;;5.45;1.27;;;16.90;99.90;;;;;;4992620;28;20076;-83
2023/08/31 09:25:56;;;;;;;4.10;1.20;;;;;;;;;;5009261;28;20042;-83
2023/08/31 09:28:26;;;;;;;4.70;1.20;;;;;;;;;;5005330;28;20048;-83
2023/08/31 09:30:53;;;;;;;3.47;1.13;;;17.10;99.90;;;;;;4984966;28;20070;-81
2023/08/31 09:33:23;;;;;;;3.80;1.15;;;16.90;99.90;;;;;;4982796;28;20037;-82
2023/08/31 09:35:55;;;;;;;4.40;1.15;;;17.30;99.90;;;;;;4986606;28;20044;-82
2023/08/31 09:40:49;;;;;;;3.13;1.30;;;17.20;99.90;;;;;;5062616;28;20045;-40
2023/08/31 09:43:21;;;;;;;4.95;1.40;;;;;;;;;;5066375;28;20044;-39
2023/08/31 09:45:48;;;;;;;5.18;1.02;;;16.60;99.90;;;;;;5060244;28;20044;-40
2023/08/31 09:48:15;;;;;;;4.05;1.10;;;16.80;99.90;;;;;;5057368;28;20510;-39
2023/08/31 09:50:43;;;;;;;4.85;1.30;;;;;;;;;;5064028;28;20041;-39
2023/08/31 09:53:10;;;;;;;4.97;1.48;;;17.40;99.90;;;;;;5064354;28;20056;-37
2023/08/31 09:55:38;;;;;;;5.75;1.23;;;17.40;99.90;;;;;;5060076;28;20590;-38
2023/08/31 09:58:06;;;;;;;4.05;1.10;;;17.10;99.90;;;;;;5073063;28;20036;-38
2023/08/31 10:00:35;;;;;;;2.88;0.98;;;17.10;99.90;;;;;;5064605;28;20040;-35
2023/08/31 10:03:03;;;;;;;5.03;1.25;;;17.20;99.90;;;;;;5069894;28;20036;-38
2023/08/31 10:05:29;;;;;;;4.22;1.00;;;17.20;99.90;;;;;;5058861;28;20507;-38
2023/08/31 10:07:55;;;;;;;3.88;1.30;;;16.70;99.90;;;;;;5066423;28;20131;-38
2023/08/31 10:10:24;;;;;;;3.97;1.10;;;17.40;99.90;;;;;;5085459;28;20120;-37
2023/08/31 10:12:51;;;;;;;5.20;1.30;;;17.10;99.90;;;;;;5070490;28;20101;-37
2023/08/31 10:15:18;;;;;;;2.80;1.00;;;16.50;99.90;;;;;;5065742;28;20037;-37
2023/08/31 10:17:45;;;;;;;4.72;1.33;;;17.50;99.90;;;;;;5076795;28;20028;-37
2023/08/31 10:20:16;;;;;;;5.95;2.10;;;;;;;;;;5073147;28;20295;-37
2023/08/31 10:22:41;;;;;;;4.40;1.15;;;17.10;99.90;;;;;;5068612;28;20064;-37
2023/08/31 10:25:08;;;;;;;4.18;1.35;;;17.20;99.90;;;;;;5069855;28;20071;-38
2023/08/31 10:27:39;;;;;;;4.32;1.20;;;;;;;;;;5074479;28;20069;-37
2023/08/31 10:30:26;;;;;;;3.92;1.20;;;;;;;;;;5073239;28;20127;-37
2023/08/31 10:33:09;;;;;;;5.00;1.15;;;17.90;99.90;;;;;;5075019;28;20131;-37
2023/08/31 10:36:01;;;;;;;4.40;1.10;;;;;;;;;;5078113;28;20048;-37
2023/08/31 10:38:32;;;;;;;3.65;1.10;;;17.30;99.90;;;;;;5072665;28;20052;-37
2023/08/31 10:41:07;;;;;;;4.53;1.30;;;;;;;;;;5072866;28;20048;-35
2023/08/31 10:43:52;;;;;;;3.35;1.08;;;;;;;;;;5074728;28;20127;-38
2023/08/31 10:46:18;;;;;;;;;;;17.30;99.90;;;;;;5069814;28;20040;-37
2023/08/31 10:48:50;;;;;;;4.03;1.10;;;;;;;;;;5071336;28;19926;-36
2023/08/31 10:51:18;;;;;;;7.05;1.20;;;17.40;99.90;;;;;;5062837;28;20135;-37
2023/08/31 10:53:46;;;;;;;4.15;1.40;;;17.20;99.90;;;;;;5076003;28;20562;-38
2023/08/31 10:56:11;;;;;;;4.60;1.20;;;17.30;99.90;;;;;;5073087;28;20043;-38
2023/08/31 10:58:37;;;;;;;6.35;1.20;;;17.00;99.90;;;;;;5065330;28;20356;-39
2023/08/31 11:01:03;;;;;;;4.13;1.08;;;17.30;99.90;;;;;;5076211;28;20028;-38
2023/08/31 11:03:32;;;;;;;7.95;1.50;;;17.20;99.90;;;;;;5064372;28;20102;-39
2023/08/31 11:05:57;;;;;;;4.38;1.20;;;17.20;99.90;;;;;;5063055;28;20532;-38
2023/08/31 11:08:26;;;;;;;4.25;1.30;;;17.40;99.90;;;;;;5069045;28;20076;-38
2023/08/31 11:10:52;;;;;;;6.32;1.30;;;17.30;99.90;;;;;;5066719;28;20394;-39
2023/08/31 11:13:23;;;;;;;3.95;1.02;;;;;;;;;;5069007;28;20036;-39
2023/08/31 11:15:49;;;;;;;3.95;1.20;;;17.40;99.90;;;;;;5066575;28;20405;-37
2023/08/31 11:18:17;;;;;;;5.97;1.20;;;16.70;99.90;;;;;;5064911;28;20108;-38
2023/08/31 11:20:43;;;;;;;5.40;1.20;;;17.30;99.90;;;;;;5066463;28;20037;-38
2023/08/31 11:23:10;;;;;;;3.45;1.02;;;;;;;;;;5076188;28;20111;-39
2023/08/31 11:25:36;;;;;;;4.18;1.50;;;17.30;99.90;;;;;;5067765;28;20127;-38
2023/08/31 11:28:09;;;;;;;4.05;1.20;;;17.30;99.90;;;;;;5060184;28;21144;-39
2023/08/31 11:30:36;;;;;;;5.70;1.50;;;17.00;99.90;;;;;;5064996;28;20048;-39
2023/08/31 11:33:11;;;;;;;7.22;1.65;;;;;;;;;;5063977;28;20033;-40
2023/08/31 11:35:40;;;;;;;7.85;1.40;;;17.30;99.90;;;;;;5075167;28;20044;-37
2023/08/31 11:38:06;;;;;;;3.38;1.00;;;17.20;99.90;;;;;;5065622;28;20075;-39
2023/08/31 11:40:32;;;;;;;3.75;1.20;;;17.40;99.90;;;;;;5059218;28;20052;-39
2023/08/31 11:43:03;;;;;;;3.78;1.20;;;17.30;99.90;;;;;;5060980;28;20448;-39
2023/08/31 11:45:29;;;;;;;3.17;1.05;;;;;;;;;;5073355;28;20486;-38
2023/08/31 11:47:55;;;;;;;4.00;1.27;;;;;;;;;;5071119;28;20037;-39
2023/08/31 11:50:22;;;;;;;5.05;1.85;;;17.20;99.90;;;;;;5066972;28;20212;-39
2023/08/31 11:52:48;;;;;;;4.15;1.40;;;18.10;99.90;;;;;;5069695;28;20502;-37
2023/08/31 11:55:20;;;;;;;4.88;1.20;;;;;;;;;;5070039;28;20043;-39
2023/08/31 11:57:54;;;;;;;6.05;1.25;;;;;;;;;;5078791;28;20029;-39
2023/08/31 12:00:21;;;;;;;7.00;1.55;;;17.40;99.90;;;;;;5071265;28;20506;-39
2023/08/31 12:02:56;;;;;;;4.93;1.20;;;17.30;99.90;;;;;;5063740;28;20533;-39
2023/08/31 12:05:22;;;;;;;4.60;1.50;;;17.60;99.90;;;;;;5059448;28;20151;-39
2023/08/31 12:07:48;;;;;;;7.03;1.60;;;17.40;99.90;;;;;;5064570;28;20033;-38
2023/08/31 12:10:15;;;;;;;5.13;1.50;;;;;;;;;;5072234;28;20041;-38
2023/08/31 12:12:40;;;;;;;4.53;2.03;;;17.40;99.90;;;;;;5066502;28;20114;-38
2023/08/31 12:15:06;;;;;;;4.95;1.50;;;17.40;99.90;;;;;;5073352;28;20082;-38
2023/08/31 12:17:36;;;;;;;5.72;1.45;;;17.30;99.90;;;;;;5066679;28;20103;-39
2023/08/31 12:20:06;;;;;;;4.50;1.33;;;17.40;99.90;;;;;;5068557;28;20091;-39
2023/08/31 12:22:32;;;;;;;5.35;1.30;;;17.70;99.90;;;;;;5061872;28;20055;-39
2023/08/31 12:24:58;;;;;;;5.70;1.40;;;17.50;99.90;;;;;;5060770;28;20036;-39
2023/08/31 12:27:24;;;;;;;6.65;1.52;;;17.40;99.90;;;;;;5073258;28;20040;-38
2023/08/31 12:29:50;;;;;;;4.80;1.20;;;17.30;99.90;;;;;;5066552;28;20434;-39
2023/08/31 12:32:18;;;;;;;3.92;1.10;;;17.50;99.90;;;;;;5067860;28;20048;-38
2023/08/31 12:34:43;;;;;;;6.00;1.40;;;16.80;99.90;;;;;;5065826;28;20108;-39
2023/08/31 12:37:09;;;;;;;5.88;1.58;;;17.20;99.90;;;;;;5070492;28;20093;-39
2023/08/31 12:39:35;;;;;;;3.97;1.17;;;17.40;99.90;;;;;;5063359;28;20070;-39
2023/08/31 12:42:00;;;;;;;5.57;1.23;;;17.50;99.90;;;;;;5064336;28;20040;-38
2023/08/31 12:44:26;;;;;;;5.80;1.20;;;17.40;96.70;;;;;;5059136;28;20051;-39
2023/08/31 12:46:52;;;;;;;4.57;1.15;;;;;;;;;;5066468;28;20486;-38
2023/08/31 12:49:20;;;;;;;5.70;1.33;;;17.50;93.70;;;;;;5067406;28;20082;-39
2023/08/31 12:51:46;;;;;;;5.05;1.60;;;;;;;;;;5065330;28;20072;-39
2023/08/31 12:54:12;;;;;;;5.55;1.30;;;17.40;90.50;;;;;;5063399;28;20045;-38
2023/08/31 12:56:38;;;;;;;4.63;1.27;;;17.20;90.30;;;;;;5066862;28;20167;-39
2023/08/31 12:59:05;;;;;;;6.97;1.73;;;17.40;92.10;;;;;;5068038;28;20077;-37
2023/08/31 13:01:33;;;;;;;6.25;1.40;;;17.20;89.40;;;;;;5069064;28;20047;-37
2023/08/31 13:03:58;;;;;;;6.40;1.40;;;18.10;87.70;;;;;;5066476;28;20077;-38
2023/08/31 13:06:25;;;;;;;6.30;1.63;;;16.90;94.10;;;;;;5065969;28;20482;-39
2023/08/31 13:08:50;;;;;;;4.90;1.20;;;17.10;76.70;;;;;;5073908;28;20398;-39
2023/08/31 13:11:18;;;;;;;4.25;1.20;;;17.10;72.20;;;;;;5064890;28;20037;-37